createdAt,value
2019-02-12T00:01:54.928Z,3.20
2019-02-12T00:04:23.509Z,1.70
2019-02-12T00:06:53.901Z,1.70
2019-02-12T00:09:22.607Z,1.50
2019-02-12T00:11:51.557Z,1.57
2019-02-12T00:14:20.289Z,1.73
2019-02-12T00:16:48.855Z,1.30
2019-02-12T00:19:17.417Z,1.63
2019-02-12T00:21:46.384Z,1.63
2019-02-12T00:24:15.409Z,1.70
2019-02-12T00:26:43.969Z,1.63
2019-02-12T00:29:12.867Z,1.67
2019-02-12T00:31:41.489Z,1.50
2019-02-12T00:34:10.053Z,1.17
2019-02-12T00:36:38.897Z,1.67
2019-02-12T00:39:07.601Z,1.40
2019-02-12T00:41:36.244Z,3.87
2019-02-12T00:44:05.447Z,1.63
2019-02-12T00:46:34.146Z,1.43
2019-02-12T00:49:02.950Z,2.60
2019-02-12T00:51:34.569Z,1.43
2019-02-12T00:54:03.137Z,1.80
2019-02-12T00:56:31.791Z,1.70
2019-02-12T00:59:03.367Z,1.90
2019-02-12T01:01:31.921Z,2.17
2019-02-12T01:04:00.601Z,2.10
2019-02-12T01:06:29.282Z,2.03
2019-02-12T01:08:59.782Z,2.00
2019-02-12T01:11:28.349Z,1.73
2019-02-12T01:13:57.027Z,1.80
2019-02-12T01:16:25.934Z,1.50
2019-02-12T01:18:54.567Z,2.77
2019-02-12T01:21:26.406Z,1.93
2019-02-12T01:23:57.835Z,1.97
2019-02-12T01:26:26.468Z,1.67
2019-02-12T01:28:55.334Z,1.77
2019-02-12T01:31:24.176Z,2.07
2019-02-12T01:33:52.845Z,1.40
2019-02-12T01:36:21.539Z,1.63
2019-02-12T01:38:51.884Z,1.47
2019-02-12T01:41:21.988Z,3.10
2019-02-12T01:43:50.659Z,1.83
2019-02-12T01:46:19.233Z,1.80
2019-02-12T01:48:47.865Z,1.87
2019-02-12T01:51:16.543Z,1.53
2019-02-12T01:53:45.167Z,1.43
2019-02-12T01:56:13.868Z,1.80
2019-02-12T01:58:42.467Z,1.27
2019-02-12T02:01:11.132Z,1.63
2019-02-12T02:03:42.676Z,1.70
2019-02-12T02:06:11.715Z,1.80
2019-02-12T02:08:40.446Z,2.07
2019-02-12T02:11:09.414Z,1.67
2019-02-12T02:13:38.084Z,2.40
2019-02-12T02:16:06.740Z,1.87
2019-02-12T02:18:35.442Z,2.20
2019-02-12T02:21:04.304Z,1.60
2019-02-12T02:23:32.923Z,1.60
2019-02-12T02:26:01.628Z,2.33
2019-02-12T02:28:30.232Z,1.80
2019-02-12T02:30:59.093Z,1.50
2019-02-12T02:33:30.741Z,1.40
2019-02-12T02:36:00.975Z,2.90
2019-02-12T02:38:29.540Z,1.60
2019-02-12T02:40:58.375Z,1.53
2019-02-12T02:43:28.991Z,1.63
2019-02-12T02:45:58.291Z,2.23
2019-02-12T02:48:26.985Z,1.90
2019-02-12T02:50:56.223Z,1.70
2019-02-12T02:53:26.606Z,1.87
2019-02-12T02:55:55.175Z,2.10
2019-02-12T02:58:23.775Z,2.43
2019-02-12T03:00:52.346Z,1.50
2019-02-12T03:03:21.303Z,1.83
2019-02-12T03:05:50.022Z,1.97
2019-02-12T03:08:18.666Z,1.80
2019-02-12T03:10:47.235Z,1.63
2019-02-12T03:13:15.841Z,2.47
2019-02-12T03:15:44.482Z,1.60
2019-02-12T03:18:13.185Z,2.10
2019-02-12T03:20:41.890Z,2.13
2019-02-12T03:23:10.590Z,2.60
2019-02-12T03:25:39.223Z,2.00
2019-02-12T03:28:07.886Z,2.23
2019-02-12T03:30:36.616Z,1.70
2019-02-12T03:33:05.236Z,1.73
2019-02-12T03:35:33.957Z,2.03
2019-02-12T03:38:02.593Z,2.70
2019-02-12T03:40:31.169Z,2.03
2019-02-12T03:42:59.837Z,2.50
2019-02-12T03:45:28.538Z,3.03
2019-02-12T03:47:57.107Z,1.90
2019-02-12T03:50:25.841Z,2.00
2019-02-12T03:52:54.493Z,2.20
2019-02-12T03:55:23.196Z,1.90
2019-02-12T03:57:51.931Z,2.17
2019-02-12T04:00:20.506Z,2.57
2019-02-12T04:03:03.963Z,4.23
2019-02-12T04:05:33.157Z,2.27
2019-02-12T04:08:02.357Z,2.37
2019-02-12T04:10:31.245Z,1.90
2019-02-12T04:13:01.077Z,2.47
2019-02-12T04:15:29.874Z,2.73
2019-02-12T04:17:58.600Z,2.30
2019-02-12T04:20:27.300Z,2.30
2019-02-12T04:22:56.054Z,2.73
2019-02-12T04:25:26.215Z,2.70
2019-02-12T04:27:55.533Z,2.27
2019-02-12T04:30:24.676Z,2.90
2019-02-12T04:32:59.344Z,2.53
2019-02-12T04:35:27.972Z,1.80
2019-02-12T04:37:57.754Z,2.43
2019-02-12T04:40:26.434Z,2.33
2019-02-12T04:42:55.217Z,1.93
2019-02-12T04:45:24.158Z,1.60
2019-02-12T04:47:52.828Z,2.30
2019-02-12T04:50:21.532Z,2.80
2019-02-12T04:52:50.230Z,1.83
2019-02-12T04:55:18.928Z,2.27
2019-02-12T04:57:47.506Z,2.10
2019-02-12T05:00:17.527Z,2.00
2019-02-12T05:02:46.564Z,2.10
2019-02-12T05:05:23.397Z,1.97
2019-02-12T05:07:57.793Z,2.20
2019-02-12T05:10:35.535Z,1.87
2019-02-12T05:13:04.176Z,1.80
2019-02-12T05:15:32.892Z,2.13
2019-02-12T05:18:01.835Z,2.13
2019-02-12T05:20:30.532Z,1.90
2019-02-12T05:22:59.337Z,2.27
2019-02-12T05:25:28.048Z,1.63
2019-02-12T05:27:58.285Z,2.20
2019-02-12T05:30:26.847Z,1.80
2019-02-12T05:32:55.493Z,1.70
2019-02-12T05:35:24.707Z,2.53
2019-02-12T05:37:53.336Z,1.93
2019-02-12T05:40:22.166Z,1.80
2019-02-12T05:42:50.891Z,1.70
2019-02-12T05:45:19.719Z,1.47
2019-02-12T05:47:48.420Z,2.57
2019-02-12T05:50:18.067Z,2.13
2019-02-12T05:52:53.869Z,1.53
2019-02-12T05:55:17.042Z,1.77
2019-02-12T05:57:45.638Z,1.93
2019-02-12T06:00:20.193Z,1.67
2019-02-12T06:02:50.335Z,2.17
2019-02-12T06:05:29.789Z,2.07
2019-02-12T06:07:58.534Z,2.03
2019-02-12T06:10:27.241Z,1.90
2019-02-12T06:12:56.257Z,2.13
2019-02-12T06:15:25.182Z,1.63
2019-02-12T06:17:54.209Z,1.70
2019-02-12T06:20:22.896Z,2.37
2019-02-12T06:22:51.571Z,1.93
2019-02-12T06:25:20.280Z,1.80
2019-02-12T06:27:49.214Z,2.10
2019-02-12T06:30:17.946Z,2.27
2019-02-12T06:32:47.829Z,2.40
2019-02-12T06:35:16.317Z,2.03
2019-02-12T06:37:45.056Z,2.20
2019-02-12T06:40:14.191Z,2.50
2019-02-12T06:42:42.974Z,3.20
2019-02-12T06:45:15.610Z,2.00
2019-02-12T06:47:44.323Z,2.13
2019-02-12T06:50:15.650Z,2.27
2019-02-12T06:52:45.371Z,2.73
2019-02-12T06:55:18.479Z,2.30
2019-02-12T06:57:51.070Z,2.47
2019-02-12T07:00:19.727Z,1.87
2019-02-12T07:03:19.384Z,2.80
2019-02-12T07:05:57.013Z,2.80
2019-02-12T07:08:40.690Z,2.30
2019-02-12T07:11:23.677Z,2.33
2019-02-12T07:13:55.704Z,2.30
2019-02-12T07:16:45.605Z,1.90
2019-02-12T07:19:22.532Z,2.23
2019-02-12T07:22:06.179Z,2.13
2019-02-12T07:24:57.165Z,3.10
2019-02-12T07:27:34.745Z,2.13
2019-02-12T07:30:39.416Z,2.50
2019-02-12T07:33:38.030Z,1.97
2019-02-12T07:36:40.753Z,2.30
2019-02-12T07:39:41.377Z,1.93
2019-02-12T07:42:34.080Z,2.10
2019-02-12T07:45:39.473Z,2.30
2019-02-12T07:48:38.911Z,2.60
2019-02-12T07:51:31.699Z,2.20
2019-02-12T07:54:19.670Z,2.57
2019-02-12T07:57:14.214Z,2.53
2019-02-12T08:00:00.976Z,2.97
2019-02-12T08:02:53.142Z,3.70
2019-02-12T08:05:43.246Z,2.50
2019-02-12T08:08:22.008Z,2.43
2019-02-12T08:10:56.479Z,2.67
2019-02-12T08:13:46.064Z,3.00
2019-02-12T08:16:32.472Z,2.97
2019-02-12T08:19:21.916Z,3.53
2019-02-12T08:22:25.852Z,3.77
2019-02-12T08:25:00.347Z,2.77
2019-02-12T08:27:34.728Z,2.87
2019-02-12T08:30:25.882Z,3.33
2019-02-12T08:33:04.908Z,3.00
2019-02-12T08:36:04.176Z,3.10
2019-02-12T08:38:47.815Z,3.73
2019-02-12T08:41:19.745Z,3.40
2019-02-12T08:44:05.910Z,3.37
2019-02-12T08:46:57.282Z,3.07
2019-02-12T08:49:31.626Z,3.30
2019-02-12T08:52:22.100Z,2.83
2019-02-12T08:55:10.877Z,3.97
2019-02-12T08:58:00.627Z,3.60
2019-02-12T09:00:35.921Z,3.97
2019-02-12T09:03:23.779Z,2.73
2019-02-12T09:05:55.456Z,2.70
2019-02-12T09:08:36.184Z,3.33
2019-02-12T09:11:30.769Z,3.60
2019-02-12T09:14:09.174Z,2.70
2019-02-12T09:16:49.572Z,2.73
2019-02-12T09:19:30.150Z,3.07
2019-02-12T09:22:08.078Z,2.70
2019-02-12T09:24:40.162Z,3.00
2019-02-12T09:27:24.077Z,3.37
2019-02-12T09:30:01.250Z,3.47
2019-02-12T09:32:45.206Z,2.87
2019-02-12T09:35:41.723Z,3.50
2019-02-12T09:38:40.670Z,3.30
2019-02-12T09:41:29.931Z,3.83
2019-02-12T09:44:16.423Z,3.70
2019-02-12T09:47:16.404Z,3.73
2019-02-12T09:49:52.039Z,4.10
2019-02-12T09:52:52.237Z,3.07
2019-02-12T09:55:38.499Z,2.80
2019-02-12T09:58:33.005Z,2.87
2019-02-12T10:01:26.031Z,2.27
2019-02-12T10:04:09.278Z,3.37
2019-02-12T10:06:49.849Z,2.50
2019-02-12T10:09:45.853Z,2.27
2019-02-12T10:12:17.525Z,2.83
2019-02-12T10:14:55.105Z,1.97
2019-02-12T10:17:29.810Z,2.50
2019-02-12T10:20:13.365Z,2.23
2019-02-12T10:23:21.305Z,2.20
2019-02-12T10:25:53.042Z,2.73
2019-02-12T10:28:49.380Z,3.67
2019-02-12T10:31:18.481Z,2.10
2019-02-12T10:33:47.129Z,2.57
2019-02-12T10:36:15.953Z,3.03
2019-02-12T10:38:44.671Z,2.57
2019-02-12T10:41:13.471Z,2.50
2019-02-12T10:43:46.622Z,2.30
2019-02-12T10:46:15.325Z,2.80
2019-02-12T10:48:44.360Z,2.47
2019-02-12T10:51:13.381Z,4.07
2019-02-12T10:53:42.264Z,3.30
2019-02-12T10:56:12.656Z,3.37
2019-02-12T10:58:41.409Z,4.13
2019-02-12T11:01:16.284Z,2.47
2019-02-12T11:03:46.172Z,3.70
2019-02-12T11:06:14.877Z,3.07
2019-02-12T11:08:43.520Z,2.57
2019-02-12T11:11:12.203Z,2.33
2019-02-12T11:13:43.619Z,2.40
2019-02-12T11:16:12.241Z,2.43
2019-02-12T11:18:41.084Z,3.07
2019-02-12T11:21:12.123Z,3.33
2019-02-12T11:23:40.632Z,2.97
2019-02-12T11:26:09.377Z,2.60
2019-02-12T11:28:40.255Z,1.97
2019-02-12T11:31:08.656Z,2.90
2019-02-12T11:33:37.405Z,2.10
2019-02-12T11:36:13.156Z,1.80
2019-02-12T11:38:42.206Z,2.23
2019-02-12T11:41:13.827Z,2.60
2019-02-12T11:43:42.387Z,1.70
2019-02-12T11:46:11.139Z,2.10
2019-02-12T11:48:39.993Z,1.67
2019-02-12T11:51:10.112Z,1.87
2019-02-12T11:53:39.613Z,2.07
2019-02-12T11:56:10.238Z,2.47
2019-02-12T11:58:38.872Z,1.50
2019-02-12T12:01:12.298Z,1.80
2019-02-12T12:03:45.995Z,1.87
2019-02-12T12:06:14.710Z,2.30
2019-02-12T12:08:48.907Z,5.10
2019-02-12T12:11:20.836Z,2.03
2019-02-12T12:13:50.648Z,2.50
2019-02-12T12:16:19.384Z,2.33
2019-02-12T12:18:49.497Z,1.80
2019-02-12T12:21:18.361Z,1.87
2019-02-12T12:23:47.297Z,2.10
2019-02-12T12:26:20.304Z,2.03
2019-02-12T12:28:49.789Z,2.47
2019-02-12T12:31:21.221Z,2.10
2019-02-12T12:33:53.125Z,2.63
2019-02-12T12:36:27.631Z,2.60
2019-02-12T12:38:56.343Z,2.03
2019-02-12T12:41:30.845Z,2.47
2019-02-12T12:44:01.474Z,2.07
2019-02-12T12:46:30.101Z,2.30
2019-02-12T12:48:59.328Z,2.27
2019-02-12T12:51:28.125Z,1.67
2019-02-12T12:53:57.116Z,1.73
2019-02-12T12:56:25.645Z,2.10
2019-02-12T12:59:01.529Z,2.30
2019-02-12T13:01:34.789Z,2.10
2019-02-12T13:04:03.407Z,1.93
2019-02-12T13:06:32.177Z,2.10
2019-02-12T13:09:01.923Z,1.87
2019-02-12T13:11:30.559Z,2.40
2019-02-12T13:14:08.400Z,1.83
2019-02-12T13:16:37.321Z,1.73
2019-02-12T13:19:10.495Z,1.40
2019-02-12T13:21:39.301Z,1.87
2019-02-12T13:24:07.857Z,1.67
2019-02-12T13:26:39.094Z,1.40
2019-02-12T13:29:08.386Z,1.77
2019-02-12T13:31:37.382Z,1.47
2019-02-12T13:34:06.842Z,1.57
2019-02-12T13:36:35.599Z,1.77
2019-02-12T13:39:05.201Z,1.80
2019-02-12T13:41:34.208Z,1.87
2019-02-12T13:44:02.960Z,1.83
2019-02-12T13:46:34.872Z,1.40
2019-02-12T13:49:09.953Z,1.93
2019-02-12T13:51:39.855Z,1.47
2019-02-12T13:54:09.904Z,1.50
2019-02-12T13:56:38.851Z,2.00
2019-02-12T13:59:08.163Z,2.03
2019-02-12T14:01:42.386Z,1.73
2019-02-12T14:04:13.880Z,1.73
2019-02-12T14:06:42.788Z,1.60
2019-02-12T14:09:14.583Z,2.57
2019-02-12T14:11:46.141Z,1.90
2019-02-12T14:14:15.093Z,1.77
2019-02-12T14:16:43.802Z,1.63
2019-02-12T14:19:12.622Z,1.70
2019-02-12T14:21:41.701Z,2.10
2019-02-12T14:24:11.312Z,1.80
2019-02-12T14:26:41.739Z,1.90
2019-02-12T14:29:11.078Z,1.80
2019-02-12T14:31:39.705Z,2.00
2019-02-12T14:34:11.196Z,1.63
2019-02-12T14:36:39.930Z,1.97
2019-02-12T14:39:08.829Z,1.80
2019-02-12T14:41:42.214Z,2.00
2019-02-12T14:44:10.804Z,1.93
2019-02-12T14:46:40.516Z,2.33
2019-02-12T14:49:11.677Z,2.53
2019-02-12T14:51:40.372Z,2.87
2019-02-12T14:54:17.154Z,2.33
2019-02-12T14:56:47.337Z,2.73
2019-02-12T14:59:16.243Z,2.63
2019-02-12T15:01:46.631Z,2.77
2019-02-12T15:04:15.264Z,2.60
2019-02-12T15:06:44.410Z,4.53
2019-02-12T15:09:13.197Z,4.70
2019-02-12T15:11:43.388Z,6.93
2019-02-12T15:14:12.086Z,5.43
2019-02-12T15:16:41.421Z,4.93
2019-02-12T15:19:12.911Z,3.53
2019-02-12T15:21:55.468Z,4.90
2019-02-12T15:24:30.936Z,4.40
2019-02-12T15:27:05.954Z,3.20
2019-02-12T15:29:38.737Z,4.00
2019-02-12T15:32:11.539Z,3.20
2019-02-12T15:34:48.830Z,3.47
2019-02-12T15:37:26.152Z,3.23
2019-02-12T15:40:01.530Z,3.00
2019-02-12T15:42:35.571Z,3.13
2019-02-12T15:45:07.258Z,3.43
2019-02-12T15:47:35.916Z,3.87
2019-02-12T15:50:10.161Z,3.13
2019-02-12T15:52:42.099Z,3.37
2019-02-12T15:55:15.046Z,3.73
2019-02-12T15:57:50.588Z,4.00
2019-02-12T16:00:25.884Z,3.87
2019-02-12T16:02:57.991Z,4.10
2019-02-12T16:05:32.814Z,5.90
2019-02-12T16:08:07.267Z,5.07
2019-02-12T16:10:41.957Z,4.47
2019-02-12T16:13:34.561Z,4.70
2019-02-12T16:16:07.831Z,4.70
2019-02-12T16:18:43.448Z,4.83
2019-02-12T16:21:19.886Z,5.07
2019-02-12T16:23:56.733Z,5.87
2019-02-12T16:26:28.467Z,5.20
2019-02-12T16:29:05.778Z,5.43
2019-02-12T16:31:37.281Z,5.57
2019-02-12T16:34:12.863Z,5.53
2019-02-12T16:36:58.717Z,4.90
2019-02-12T16:39:27.660Z,5.10
2019-02-12T16:42:07.657Z,4.97
2019-02-12T16:44:39.525Z,6.47
2019-02-12T16:47:08.409Z,5.67
2019-02-12T16:49:42.694Z,6.63
2019-02-12T16:52:27.015Z,6.13
2019-02-12T16:54:56.972Z,8.90
2019-02-12T16:57:25.618Z,13.73
2019-02-12T16:59:54.291Z,12.50
2019-02-12T17:02:24.301Z,7.93
2019-02-12T17:04:56.479Z,8.13
2019-02-12T17:07:35.862Z,8.50
2019-02-12T17:10:06.677Z,9.57
2019-02-12T17:12:38.492Z,7.77
2019-02-12T17:15:12.199Z,7.37
2019-02-12T17:17:41.293Z,7.57
2019-02-12T17:20:31.832Z,7.07
2019-02-12T17:23:00.410Z,7.73
2019-02-12T17:25:29.241Z,8.07
2019-02-12T17:27:57.944Z,7.63
2019-02-12T17:30:35.679Z,6.50
2019-02-12T17:33:08.403Z,8.20
2019-02-12T17:35:37.230Z,8.07
2019-02-12T17:38:12.091Z,8.77
2019-02-12T17:40:43.957Z,8.87
2019-02-12T17:43:24.812Z,10.30
2019-02-12T17:45:59.071Z,9.43
2019-02-12T17:48:28.229Z,9.70
2019-02-12T17:50:57.214Z,10.87
2019-02-12T17:53:26.530Z,10.20
2019-02-12T17:55:57.066Z,10.07
2019-02-12T17:58:25.670Z,10.93
2019-02-12T18:00:56.958Z,10.10
2019-02-12T18:03:28.676Z,9.73
2019-02-12T18:06:00.472Z,10.90
2019-02-12T18:08:40.499Z,11.10
2019-02-12T18:11:10.728Z,10.23
2019-02-12T18:13:42.002Z,10.63
2019-02-12T18:16:12.939Z,9.80
2019-02-12T18:18:42.905Z,10.87
2019-02-12T18:21:14.934Z,9.97
2019-02-12T18:23:43.572Z,9.93
2019-02-12T18:26:13.366Z,9.17
2019-02-12T18:28:44.918Z,9.87
2019-02-12T18:31:17.159Z,9.17
2019-02-12T18:33:47.149Z,9.40
2019-02-12T18:36:15.749Z,9.27
2019-02-12T18:38:45.994Z,9.43
2019-02-12T18:44:47.280Z,8.93
2019-02-12T18:47:17.542Z,9.90
2019-02-12T18:49:46.107Z,9.60
2019-02-12T18:52:15.746Z,9.13
2019-02-12T18:54:49.157Z,8.20
2019-02-12T18:57:17.791Z,9.10
2019-02-12T18:59:50.777Z,8.77
2019-02-12T19:02:29.602Z,9.07
2019-02-12T19:05:01.218Z,9.13
2019-02-12T19:07:29.787Z,8.43
2019-02-12T19:10:00.208Z,8.87
2019-02-12T19:12:29.465Z,6.70
2019-02-12T19:14:58.199Z,7.90
2019-02-12T19:17:31.233Z,8.10
2019-02-12T19:20:00.352Z,6.70
2019-02-12T19:22:37.694Z,6.60
2019-02-12T19:25:09.418Z,7.40
2019-02-12T19:27:37.983Z,6.93
2019-02-12T19:30:12.338Z,6.77
2019-02-12T19:32:41.281Z,6.23
2019-02-12T19:35:14.171Z,6.07
2019-02-12T19:37:43.221Z,6.00
2019-02-12T19:40:17.911Z,6.50
2019-02-12T19:42:52.207Z,5.90
2019-02-12T19:45:25.079Z,5.97
2019-02-12T19:47:54.692Z,6.10
2019-02-12T19:50:24.694Z,5.57
2019-02-12T19:52:53.519Z,6.53
2019-02-12T19:55:31.651Z,6.27
2019-02-12T19:58:00.349Z,5.67
2019-02-12T20:00:36.829Z,5.70
2019-02-12T20:03:07.924Z,6.60
2019-02-12T20:05:43.160Z,5.87
2019-02-12T20:08:11.667Z,5.97
2019-02-12T20:10:45.581Z,5.90
2019-02-12T20:13:15.884Z,6.33
2019-02-12T20:15:47.361Z,5.13
2019-02-12T20:18:23.184Z,6.17
2019-02-12T20:20:54.663Z,4.87
2019-02-12T20:23:23.598Z,5.40
2019-02-12T20:25:52.763Z,6.07
2019-02-12T20:28:27.989Z,5.43
2019-02-12T20:31:00.809Z,4.93
2019-02-12T20:33:29.613Z,5.77
2019-02-12T20:35:58.429Z,5.30
2019-02-12T20:38:44.801Z,5.13
2019-02-12T20:41:13.871Z,6.33
2019-02-12T20:43:46.115Z,5.53
2019-02-12T20:46:18.093Z,5.57
2019-02-12T20:48:47.196Z,4.97
2019-02-12T20:51:18.829Z,5.47
2019-02-12T20:53:50.951Z,5.13
2019-02-12T20:56:24.578Z,5.13
2019-02-12T20:58:58.613Z,5.60
2019-02-12T21:01:32.087Z,5.13
2019-02-12T21:04:00.708Z,5.97
2019-02-12T21:06:51.992Z,6.00
2019-02-12T21:09:22.774Z,5.80
2019-02-12T21:12:00.326Z,5.23
2019-02-12T21:14:43.084Z,5.70
2019-02-12T21:17:07.687Z,6.37
2019-02-12T21:19:43.802Z,6.40
2019-02-12T21:22:24.020Z,6.47
2019-02-12T21:25:01.995Z,6.67
2019-02-12T21:28:34.821Z,6.67
2019-02-12T21:33:56.561Z,6.73
2019-02-12T21:36:33.959Z,6.17
2019-02-12T21:39:04.682Z,7.27
2019-02-12T21:41:38.242Z,8.63
2019-02-12T21:44:13.640Z,8.43
2019-02-12T21:46:54.198Z,7.60
2019-02-12T21:49:36.989Z,7.83
2019-02-12T21:52:07.589Z,8.33
2019-02-12T21:54:38.772Z,8.30
2019-02-12T21:57:12.072Z,10.00
2019-02-12T21:59:50.171Z,8.47
2019-02-12T22:02:29.243Z,8.87
2019-02-12T22:05:08.321Z,8.00
2019-02-12T22:07:41.756Z,8.67
2019-02-12T22:10:18.840Z,9.43
2019-02-12T22:12:52.651Z,9.33
2019-02-12T22:15:21.909Z,9.87
2019-02-12T22:17:53.718Z,8.40
2019-02-12T22:20:27.334Z,9.07
2019-02-12T22:22:57.221Z,10.00
2019-02-12T22:25:26.746Z,9.57
2019-02-12T22:27:58.280Z,10.40
2019-02-12T22:30:27.395Z,9.63
2019-02-12T22:32:56.281Z,9.63
2019-02-12T22:35:29.603Z,10.33
2019-02-12T22:38:08.594Z,10.90
2019-02-12T22:40:37.681Z,10.47
2019-02-12T22:43:11.264Z,10.80
2019-02-12T22:45:45.167Z,10.80
2019-02-12T22:48:13.551Z,11.07
2019-02-12T22:50:42.231Z,10.13
2019-02-12T22:53:15.411Z,10.73
2019-02-12T22:55:47.651Z,10.70
2019-02-12T22:58:30.746Z,11.63
2019-02-12T23:01:05.698Z,9.87
2019-02-12T23:03:35.794Z,10.33
2019-02-12T23:06:05.076Z,10.93
2019-02-12T23:08:35.703Z,10.53
2019-02-12T23:11:08.169Z,9.53
2019-02-12T23:13:39.015Z,9.83
2019-02-12T23:16:08.233Z,11.03
2019-02-12T23:18:37.620Z,10.70
2019-02-12T23:21:06.907Z,11.73
2019-02-12T23:23:36.082Z,11.10
2019-02-12T23:26:10.585Z,10.80
2019-02-12T23:28:39.318Z,11.23
2019-02-12T23:31:08.098Z,11.07
2019-02-12T23:33:36.739Z,10.03
2019-02-12T23:36:05.735Z,10.70
2019-02-12T23:38:39.282Z,11.10
2019-02-12T23:41:07.468Z,10.47
2019-02-12T23:43:36.286Z,10.53
2019-02-12T23:46:05.414Z,11.10
2019-02-12T23:48:34.539Z,11.03
2019-02-12T23:51:05.955Z,11.27
2019-02-12T23:53:34.895Z,12.90
2019-02-12T23:56:04.607Z,11.10
2019-02-12T23:58:34.088Z,11.43
